sensor_id;sensor_type;location;lat;lon;timestamp;P1;durP1;ratioP1;P2;durP2;ratioP2
70414;SDS011;57837;52.064;113.478;2022-10-22T00:00:10;85.40;;;31.13;;
70414;SDS011;57837;52.064;113.478;2022-10-22T00:03:16;85.57;;;32.25;;
70414;SDS011;57837;52.064;113.478;2022-10-22T00:06:20;86.03;;;33.95;;
70414;SDS011;57837;52.064;113.478;2022-10-22T00:09:23;91.18;;;35.10;;
70414;SDS011;57837;52.064;113.478;2022-10-22T00:12:27;98.90;;;35.80;;
70414;SDS011;57837;52.064;113.478;2022-10-22T00:15:31;85.30;;;35.37;;
70414;SDS011;57837;52.064;113.478;2022-10-22T00:18:35;88.15;;;41.33;;
70414;SDS011;57837;52.064;113.478;2022-10-22T00:21:39;74.47;;;33.80;;
70414;SDS011;57837;52.064;113.478;2022-10-22T00:24:43;95.13;;;34.95;;
70414;SDS011;57837;52.064;113.478;2022-10-22T00:27:46;83.27;;;35.43;;
70414;SDS011;57837;52.064;113.478;2022-10-22T00:30:54;96.63;;;36.97;;
70414;SDS011;57837;52.064;113.478;2022-10-22T00:33:59;92.50;;;36.55;;
70414;SDS011;57837;52.064;113.478;2022-10-22T00:37:03;98.90;;;36.92;;
70414;SDS011;57837;52.064;113.478;2022-10-22T00:40:07;82.53;;;33.13;;
70414;SDS011;57837;52.064;113.478;2022-10-22T00:43:14;103.32;;;38.15;;
70414;SDS011;57837;52.064;113.478;2022-10-22T00:46:20;104.80;;;41.08;;
70414;SDS011;57837;52.064;113.478;2022-10-22T00:49:24;85.60;;;34.65;;
70414;SDS011;57837;52.064;113.478;2022-10-22T00:52:28;90.67;;;32.53;;
70414;SDS011;57837;52.064;113.478;2022-10-22T00:55:32;85.78;;;33.67;;
70414;SDS011;57837;52.064;113.478;2022-10-22T00:58:38;89.47;;;33.30;;
70414;SDS011;57837;52.064;113.478;2022-10-22T01:01:45;67.85;;;26.75;;
70414;SDS011;57837;52.064;113.478;2022-10-22T01:04:49;85.57;;;30.42;;
70414;SDS011;57837;52.064;113.478;2022-10-22T01:07:53;88.13;;;30.40;;
70414;SDS011;57837;52.064;113.478;2022-10-22T01:14:32;100.97;;;38.20;;
70414;SDS011;57837;52.064;113.478;2022-10-22T01:31:11;88.22;;;33.90;;
70414;SDS011;57837;52.064;113.478;2022-10-22T01:34:16;76.80;;;32.97;;
70414;SDS011;57837;52.064;113.478;2022-10-22T01:37:21;77.70;;;33.43;;
70414;SDS011;57837;52.064;113.478;2022-10-22T01:40:27;87.05;;;35.75;;
70414;SDS011;57837;52.064;113.478;2022-10-22T01:43:31;88.35;;;34.88;;
70414;SDS011;57837;52.064;113.478;2022-10-22T01:46:37;102.68;;;39.05;;
70414;SDS011;57837;52.064;113.478;2022-10-22T01:53:48;97.60;;;40.73;;
70414;SDS011;57837;52.064;113.478;2022-10-22T02:00:16;91.72;;;37.65;;
70414;SDS011;57837;52.064;113.478;2022-10-22T02:03:24;93.45;;;39.83;;
70414;SDS011;57837;52.064;113.478;2022-10-22T02:06:33;98.30;;;39.15;;
70414;SDS011;57837;52.064;113.478;2022-10-22T02:09:40;100.83;;;35.23;;
70414;SDS011;57837;52.064;113.478;2022-10-22T02:12:47;94.18;;;34.45;;
70414;SDS011;57837;52.064;113.478;2022-10-22T02:15:53;79.43;;;33.53;;
70414;SDS011;57837;52.064;113.478;2022-10-22T02:19:00;87.10;;;34.20;;
70414;SDS011;57837;52.064;113.478;2022-10-22T02:22:16;80.65;;;32.40;;
70414;SDS011;57837;52.064;113.478;2022-10-22T02:25:20;90.47;;;36.70;;
70414;SDS011;57837;52.064;113.478;2022-10-22T02:28:28;85.32;;;37.13;;
70414;SDS011;57837;52.064;113.478;2022-10-22T02:31:53;71.68;;;31.15;;
70414;SDS011;57837;52.064;113.478;2022-10-22T02:35:00;75.90;;;30.00;;
70414;SDS011;57837;52.064;113.478;2022-10-22T02:38:05;75.65;;;30.45;;
70414;SDS011;57837;52.064;113.478;2022-10-22T02:41:10;72.20;;;30.87;;
70414;SDS011;57837;52.064;113.478;2022-10-22T02:44:13;73.10;;;30.63;;
70414;SDS011;57837;52.064;113.478;2022-10-22T02:47:17;75.20;;;30.02;;
70414;SDS011;57837;52.064;113.478;2022-10-22T02:50:21;80.10;;;32.30;;
70414;SDS011;57837;52.064;113.478;2022-10-22T02:53:25;75.88;;;30.90;;
70414;SDS011;57837;52.064;113.478;2022-10-22T02:56:29;76.40;;;32.30;;
70414;SDS011;57837;52.064;113.478;2022-10-22T02:59:33;77.03;;;31.87;;
70414;SDS011;57837;52.064;113.478;2022-10-22T03:02:36;79.75;;;32.55;;
70414;SDS011;57837;52.064;113.478;2022-10-22T03:05:40;81.40;;;34.53;;
70414;SDS011;57837;52.064;113.478;2022-10-22T03:08:43;84.55;;;30.92;;
70414;SDS011;57837;52.064;113.478;2022-10-22T03:11:47;63.77;;;25.13;;
70414;SDS011;57837;52.064;113.478;2022-10-22T03:14:50;65.05;;;26.15;;
70414;SDS011;57837;52.064;113.478;2022-10-22T03:17:53;70.07;;;26.08;;
70414;SDS011;57837;52.064;113.478;2022-10-22T03:21:41;76.45;;;26.63;;
70414;SDS011;57837;52.064;113.478;2022-10-22T03:24:33;78.78;;;26.80;;
70414;SDS011;57837;52.064;113.478;2022-10-22T03:27:40;81.20;;;29.03;;
70414;SDS011;57837;52.064;113.478;2022-10-22T03:30:45;82.30;;;26.43;;
70414;SDS011;57837;52.064;113.478;2022-10-22T03:33:49;90.15;;;26.50;;
70414;SDS011;57837;52.064;113.478;2022-10-22T03:36:52;89.43;;;26.33;;
70414;SDS011;57837;52.064;113.478;2022-10-22T03:39:57;89.15;;;26.02;;
70414;SDS011;57837;52.064;113.478;2022-10-22T03:43:01;72.70;;;24.17;;
70414;SDS011;57837;52.064;113.478;2022-10-22T03:46:05;50.57;;;17.37;;
70414;SDS011;57837;52.064;113.478;2022-10-22T03:49:09;50.40;;;16.95;;
70414;SDS011;57837;52.064;113.478;2022-10-22T03:52:13;61.15;;;19.33;;
70414;SDS011;57837;52.064;113.478;2022-10-22T03:55:17;61.55;;;20.88;;
70414;SDS011;57837;52.064;113.478;2022-10-22T03:58:21;53.50;;;18.90;;
70414;SDS011;57837;52.064;113.478;2022-10-22T04:01:25;52.37;;;17.97;;
70414;SDS011;57837;52.064;113.478;2022-10-22T04:04:30;74.15;;;22.70;;
70414;SDS011;57837;52.064;113.478;2022-10-22T04:07:33;57.42;;;17.42;;
70414;SDS011;57837;52.064;113.478;2022-10-22T04:10:38;59.00;;;20.13;;
70414;SDS011;57837;52.064;113.478;2022-10-22T04:13:42;65.13;;;16.47;;
70414;SDS011;57837;52.064;113.478;2022-10-22T04:16:46;55.10;;;16.30;;
70414;SDS011;57837;52.064;113.478;2022-10-22T04:19:50;54.47;;;16.65;;
70414;SDS011;57837;52.064;113.478;2022-10-22T04:22:54;41.08;;;15.77;;
70414;SDS011;57837;52.064;113.478;2022-10-22T04:25:58;42.60;;;15.43;;
70414;SDS011;57837;52.064;113.478;2022-10-22T04:29:02;46.43;;;16.33;;
70414;SDS011;57837;52.064;113.478;2022-10-22T04:32:14;33.00;;;11.40;;
70414;SDS011;57837;52.064;113.478;2022-10-22T04:35:17;34.42;;;13.18;;
70414;SDS011;57837;52.064;113.478;2022-10-22T04:38:22;36.25;;;12.60;;
70414;SDS011;57837;52.064;113.478;2022-10-22T04:41:26;26.55;;;11.25;;
70414;SDS011;57837;52.064;113.478;2022-10-22T04:44:35;27.40;;;8.77;;
70414;SDS011;57837;52.064;113.478;2022-10-22T04:47:38;24.95;;;8.75;;
70414;SDS011;57837;52.064;113.478;2022-10-22T04:50:42;40.67;;;11.40;;
70414;SDS011;57837;52.064;113.478;2022-10-22T04:53:45;23.80;;;9.27;;
70414;SDS011;57837;52.064;113.478;2022-10-22T04:56:49;28.27;;;10.07;;
70414;SDS011;57837;52.064;113.478;2022-10-22T04:59:53;34.80;;;10.20;;
70414;SDS011;57837;52.064;113.478;2022-10-22T05:02:56;32.80;;;11.80;;
70414;SDS011;57837;52.064;113.478;2022-10-22T05:06:00;30.35;;;10.20;;
70414;SDS011;57837;52.064;113.478;2022-10-22T05:09:05;42.03;;;11.25;;
70414;SDS011;57837;52.064;113.478;2022-10-22T05:12:10;33.17;;;12.18;;
70414;SDS011;57837;52.064;113.478;2022-10-22T05:15:15;36.90;;;12.37;;
70414;SDS011;57837;52.064;113.478;2022-10-22T05:18:17;39.17;;;12.13;;
70414;SDS011;57837;52.064;113.478;2022-10-22T05:21:24;57.05;;;13.98;;
70414;SDS011;57837;52.064;113.478;2022-10-22T05:24:28;36.97;;;12.95;;
70414;SDS011;57837;52.064;113.478;2022-10-22T05:27:33;50.75;;;14.82;;
70414;SDS011;57837;52.064;113.478;2022-10-22T05:30:36;38.50;;;13.40;;
70414;SDS011;57837;52.064;113.478;2022-10-22T05:33:40;36.23;;;12.87;;
70414;SDS011;57837;52.064;113.478;2022-10-22T05:36:44;36.40;;;13.25;;
70414;SDS011;57837;52.064;113.478;2022-10-22T05:39:49;40.58;;;14.85;;
70414;SDS011;57837;52.064;113.478;2022-10-22T05:43:12;39.00;;;14.02;;
70414;SDS011;57837;52.064;113.478;2022-10-22T05:46:18;39.40;;;14.40;;
70414;SDS011;57837;52.064;113.478;2022-10-22T05:49:24;40.10;;;14.10;;
70414;SDS011;57837;52.064;113.478;2022-10-22T05:52:28;40.53;;;13.95;;
70414;SDS011;57837;52.064;113.478;2022-10-22T05:55:35;46.50;;;14.25;;
70414;SDS011;57837;52.064;113.478;2022-10-22T05:58:42;55.38;;;15.02;;
70414;SDS011;57837;52.064;113.478;2022-10-22T06:01:46;49.53;;;15.20;;
70414;SDS011;57837;52.064;113.478;2022-10-22T06:04:50;85.30;;;32.57;;
70414;SDS011;57837;52.064;113.478;2022-10-22T06:07:53;75.70;;;20.13;;
70414;SDS011;57837;52.064;113.478;2022-10-22T06:10:59;50.30;;;18.67;;
70414;SDS011;57837;52.064;113.478;2022-10-22T06:14:03;50.45;;;18.42;;
70414;SDS011;57837;52.064;113.478;2022-10-22T06:17:07;45.10;;;16.43;;
70414;SDS011;57837;52.064;113.478;2022-10-22T06:20:11;53.97;;;17.13;;
70414;SDS011;57837;52.064;113.478;2022-10-22T06:23:16;48.60;;;17.80;;
70414;SDS011;57837;52.064;113.478;2022-10-22T06:26:19;52.85;;;16.85;;
70414;SDS011;57837;52.064;113.478;2022-10-22T06:29:23;46.55;;;16.25;;
70414;SDS011;57837;52.064;113.478;2022-10-22T06:32:26;44.30;;;16.40;;
70414;SDS011;57837;52.064;113.478;2022-10-22T06:35:30;64.67;;;22.00;;
70414;SDS011;57837;52.064;113.478;2022-10-22T06:38:34;57.78;;;21.38;;
70414;SDS011;57837;52.064;113.478;2022-10-22T06:41:38;51.97;;;22.40;;
70414;SDS011;57837;52.064;113.478;2022-10-22T06:44:42;55.67;;;21.60;;
70414;SDS011;57837;52.064;113.478;2022-10-22T06:47:46;56.27;;;21.73;;
70414;SDS011;57837;52.064;113.478;2022-10-22T06:50:50;51.47;;;21.27;;
70414;SDS011;57837;52.064;113.478;2022-10-22T06:53:54;51.70;;;20.30;;
70414;SDS011;57837;52.064;113.478;2022-10-22T06:56:59;52.88;;;20.85;;
70414;SDS011;57837;52.064;113.478;2022-10-22T07:00:04;62.08;;;23.05;;
70414;SDS011;57837;52.064;113.478;2022-10-22T07:03:11;81.73;;;33.47;;
70414;SDS011;57837;52.064;113.478;2022-10-22T07:06:16;85.63;;;36.97;;
70414;SDS011;57837;52.064;113.478;2022-10-22T07:09:20;93.47;;;35.10;;
70414;SDS011;57837;52.064;113.478;2022-10-22T07:12:24;79.90;;;34.00;;
70414;SDS011;57837;52.064;113.478;2022-10-22T07:15:28;73.75;;;32.92;;
70414;SDS011;57837;52.064;113.478;2022-10-22T07:18:32;67.80;;;31.03;;
70414;SDS011;57837;52.064;113.478;2022-10-22T07:21:37;67.40;;;25.03;;
70414;SDS011;57837;52.064;113.478;2022-10-22T07:24:41;67.45;;;26.83;;
70414;SDS011;57837;52.064;113.478;2022-10-22T07:27:44;56.47;;;22.45;;
70414;SDS011;57837;52.064;113.478;2022-10-22T07:30:49;63.38;;;20.40;;
70414;SDS011;57837;52.064;113.478;2022-10-22T07:33:52;68.47;;;19.87;;
70414;SDS011;57837;52.064;113.478;2022-10-22T07:36:56;62.40;;;19.67;;
70414;SDS011;57837;52.064;113.478;2022-10-22T07:39:59;80.45;;;23.13;;
70414;SDS011;57837;52.064;113.478;2022-10-22T07:43:05;64.95;;;24.48;;
70414;SDS011;57837;52.064;113.478;2022-10-22T07:46:09;64.95;;;23.17;;
70414;SDS011;57837;52.064;113.478;2022-10-22T07:49:13;68.87;;;26.17;;
70414;SDS011;57837;52.064;113.478;2022-10-22T07:52:16;68.93;;;28.83;;
70414;SDS011;57837;52.064;113.478;2022-10-22T07:55:20;67.38;;;27.00;;
70414;SDS011;57837;52.064;113.478;2022-10-22T07:58:24;67.40;;;25.27;;
70414;SDS011;57837;52.064;113.478;2022-10-22T08:01:28;84.45;;;28.08;;
70414;SDS011;57837;52.064;113.478;2022-10-22T08:04:32;90.27;;;34.50;;
70414;SDS011;57837;52.064;113.478;2022-10-22T08:07:36;75.47;;;32.43;;
70414;SDS011;57837;52.064;113.478;2022-10-22T08:10:40;57.50;;;22.75;;
70414;SDS011;57837;52.064;113.478;2022-10-22T08:13:44;70.22;;;26.33;;
70414;SDS011;57837;52.064;113.478;2022-10-22T08:16:47;64.65;;;25.05;;
70414;SDS011;57837;52.064;113.478;2022-10-22T08:19:51;58.60;;;21.47;;
70414;SDS011;57837;52.064;113.478;2022-10-22T08:22:54;73.53;;;25.30;;
70414;SDS011;57837;52.064;113.478;2022-10-22T08:25:58;62.53;;;22.92;;
70414;SDS011;57837;52.064;113.478;2022-10-22T08:29:02;74.05;;;26.40;;
70414;SDS011;57837;52.064;113.478;2022-10-22T08:32:06;68.60;;;26.95;;
70414;SDS011;57837;52.064;113.478;2022-10-22T08:35:10;80.30;;;30.87;;
70414;SDS011;57837;52.064;113.478;2022-10-22T08:38:18;85.70;;;27.43;;
70414;SDS011;57837;52.064;113.478;2022-10-22T08:41:22;72.43;;;23.42;;
70414;SDS011;57837;52.064;113.478;2022-10-22T08:51:09;83.53;;;28.90;;
70414;SDS011;57837;52.064;113.478;2022-10-22T08:54:18;92.00;;;32.17;;
70414;SDS011;57837;52.064;113.478;2022-10-22T09:00:59;82.40;;;30.20;;
70414;SDS011;57837;52.064;113.478;2022-10-22T09:04:11;83.22;;;30.77;;
70414;SDS011;57837;52.064;113.478;2022-10-22T09:07:19;82.77;;;29.40;;
70414;SDS011;57837;52.064;113.478;2022-10-22T09:10:23;82.20;;;27.92;;
70414;SDS011;57837;52.064;113.478;2022-10-22T09:13:34;92.70;;;28.50;;
70414;SDS011;57837;52.064;113.478;2022-10-22T09:20:10;96.68;;;30.92;;
70414;SDS011;57837;52.064;113.478;2022-10-22T09:26:54;229.77;;;81.60;;
70414;SDS011;57837;52.064;113.478;2022-10-22T09:29:59;214.05;;;80.07;;
70414;SDS011;57837;52.064;113.478;2022-10-22T09:36:16;139.18;;;51.38;;
70414;SDS011;57837;52.064;113.478;2022-10-22T09:39:24;122.93;;;45.97;;
70414;SDS011;57837;52.064;113.478;2022-10-22T09:42:35;83.60;;;28.42;;
70414;SDS011;57837;52.064;113.478;2022-10-22T09:45:40;54.92;;;21.20;;
70414;SDS011;57837;52.064;113.478;2022-10-22T09:49:02;60.08;;;24.25;;
70414;SDS011;57837;52.064;113.478;2022-10-22T09:52:27;53.95;;;22.90;;
70414;SDS011;57837;52.064;113.478;2022-10-22T09:55:33;79.23;;;29.73;;
70414;SDS011;57837;52.064;113.478;2022-10-22T09:58:43;93.43;;;38.55;;
70414;SDS011;57837;52.064;113.478;2022-10-22T10:01:55;111.22;;;44.90;;
70414;SDS011;57837;52.064;113.478;2022-10-22T10:05:23;78.80;;;27.45;;
70414;SDS011;57837;52.064;113.478;2022-10-22T10:08:29;80.32;;;26.98;;
70414;SDS011;57837;52.064;113.478;2022-10-22T10:11:36;86.40;;;34.27;;
70414;SDS011;57837;52.064;113.478;2022-10-22T10:18:45;89.03;;;30.27;;
70414;SDS011;57837;52.064;113.478;2022-10-22T10:28:36;98.00;;;33.57;;
70414;SDS011;57837;52.064;113.478;2022-10-22T10:31:48;111.63;;;39.17;;
70414;SDS011;57837;52.064;113.478;2022-10-22T10:35:30;117.13;;;46.60;;
70414;SDS011;57837;52.064;113.478;2022-10-22T10:45:15;152.07;;;58.17;;
70414;SDS011;57837;52.064;113.478;2022-10-22T10:55:37;165.98;;;54.58;;
70414;SDS011;57837;52.064;113.478;2022-10-22T10:58:55;274.95;;;85.97;;
70414;SDS011;57837;52.064;113.478;2022-10-22T11:12:35;353.88;;;125.22;;
70414;SDS011;57837;52.064;113.478;2022-10-22T11:15:46;220.82;;;82.50;;
70414;SDS011;57837;52.064;113.478;2022-10-22T11:22:36;158.35;;;53.85;;
70414;SDS011;57837;52.064;113.478;2022-10-22T11:26:04;202.88;;;69.47;;
70414;SDS011;57837;52.064;113.478;2022-10-22T11:29:23;215.93;;;75.47;;
70414;SDS011;57837;52.064;113.478;2022-10-22T11:32:33;213.65;;;76.93;;
70414;SDS011;57837;52.064;113.478;2022-10-22T11:35:39;216.07;;;79.17;;
70414;SDS011;57837;52.064;113.478;2022-10-22T11:38:45;224.52;;;83.55;;
70414;SDS011;57837;52.064;113.478;2022-10-22T11:41:49;245.73;;;87.53;;
70414;SDS011;57837;52.064;113.478;2022-10-22T11:51:53;248.73;;;113.80;;
70414;SDS011;57837;52.064;113.478;2022-10-22T11:54:54;226.25;;;99.00;;
70414;SDS011;57837;52.064;113.478;2022-10-22T11:58:00;193.82;;;84.25;;
70414;SDS011;57837;52.064;113.478;2022-10-22T12:04:15;179.55;;;73.68;;
70414;SDS011;57837;52.064;113.478;2022-10-22T12:07:52;147.83;;;66.23;;
70414;SDS011;57837;52.064;113.478;2022-10-22T12:17:26;140.73;;;59.83;;
70414;SDS011;57837;52.064;113.478;2022-10-22T12:20:31;123.72;;;50.55;;
70414;SDS011;57837;52.064;113.478;2022-10-22T12:23:35;110.63;;;43.77;;
70414;SDS011;57837;52.064;113.478;2022-10-22T12:26:39;122.82;;;50.63;;
70414;SDS011;57837;52.064;113.478;2022-10-22T12:29:43;138.30;;;55.72;;
70414;SDS011;57837;52.064;113.478;2022-10-22T12:32:47;147.52;;;58.85;;
70414;SDS011;57837;52.064;113.478;2022-10-22T12:35:53;151.90;;;58.45;;
70414;SDS011;57837;52.064;113.478;2022-10-22T12:39:00;159.53;;;63.63;;
70414;SDS011;57837;52.064;113.478;2022-10-22T12:42:06;175.18;;;67.10;;
70414;SDS011;57837;52.064;113.478;2022-10-22T12:45:13;194.68;;;82.82;;
70414;SDS011;57837;52.064;113.478;2022-10-22T12:51:23;184.15;;;73.93;;
70414;SDS011;57837;52.064;113.478;2022-10-22T12:54:27;209.60;;;79.03;;
70414;SDS011;57837;52.064;113.478;2022-10-22T12:57:34;179.15;;;71.97;;
70414;SDS011;57837;52.064;113.478;2022-10-22T13:00:37;191.23;;;79.30;;
70414;SDS011;57837;52.064;113.478;2022-10-22T13:03:47;319.30;;;106.90;;
70414;SDS011;57837;52.064;113.478;2022-10-22T13:07:03;167.27;;;64.30;;
70414;SDS011;57837;52.064;113.478;2022-10-22T13:10:25;180.80;;;65.80;;
70414;SDS011;57837;52.064;113.478;2022-10-22T13:13:42;235.63;;;85.80;;
70414;SDS011;57837;52.064;113.478;2022-10-22T13:17:06;422.88;;;134.25;;
70414;SDS011;57837;52.064;113.478;2022-10-22T13:20:20;469.67;;;184.50;;
70414;SDS011;57837;52.064;113.478;2022-10-22T13:23:25;315.58;;;111.82;;
70414;SDS011;57837;52.064;113.478;2022-10-22T13:26:31;259.80;;;95.80;;
70414;SDS011;57837;52.064;113.478;2022-10-22T13:29:37;215.90;;;79.07;;
70414;SDS011;57837;52.064;113.478;2022-10-22T13:32:47;216.00;;;74.25;;
70414;SDS011;57837;52.064;113.478;2022-10-22T13:35:54;191.45;;;69.25;;
70414;SDS011;57837;52.064;113.478;2022-10-22T13:38:58;180.95;;;65.18;;
70414;SDS011;57837;52.064;113.478;2022-10-22T13:42:02;157.67;;;56.30;;
70414;SDS011;57837;52.064;113.478;2022-10-22T13:45:05;153.52;;;54.83;;
70414;SDS011;57837;52.064;113.478;2022-10-22T13:48:16;128.63;;;46.60;;
70414;SDS011;57837;52.064;113.478;2022-10-22T13:51:31;112.57;;;43.92;;
70414;SDS011;57837;52.064;113.478;2022-10-22T13:54:39;134.67;;;47.27;;
70414;SDS011;57837;52.064;113.478;2022-10-22T13:57:43;169.85;;;57.30;;
70414;SDS011;57837;52.064;113.478;2022-10-22T14:00:48;155.52;;;54.20;;
70414;SDS011;57837;52.064;113.478;2022-10-22T14:03:59;153.77;;;53.78;;
70414;SDS011;57837;52.064;113.478;2022-10-22T14:07:12;157.43;;;57.57;;
70414;SDS011;57837;52.064;113.478;2022-10-22T14:13:23;151.38;;;59.17;;
70414;SDS011;57837;52.064;113.478;2022-10-22T14:16:28;125.28;;;45.00;;
70414;SDS011;57837;52.064;113.478;2022-10-22T14:19:34;104.53;;;39.47;;
70414;SDS011;57837;52.064;113.478;2022-10-22T14:22:38;118.13;;;45.80;;
70414;SDS011;57837;52.064;113.478;2022-10-22T14:25:42;131.85;;;45.58;;
70414;SDS011;57837;52.064;113.478;2022-10-22T14:28:46;112.43;;;42.53;;
70414;SDS011;57837;52.064;113.478;2022-10-22T14:32:14;82.80;;;29.92;;
70414;SDS011;57837;52.064;113.478;2022-10-22T14:35:21;94.47;;;32.83;;
70414;SDS011;57837;52.064;113.478;2022-10-22T14:38:26;82.80;;;29.48;;
70414;SDS011;57837;52.064;113.478;2022-10-22T14:41:30;90.70;;;29.80;;
70414;SDS011;57837;52.064;113.478;2022-10-22T14:44:34;80.85;;;25.65;;
70414;SDS011;57837;52.064;113.478;2022-10-22T14:47:37;86.20;;;29.13;;
70414;SDS011;57837;52.064;113.478;2022-10-22T14:50:41;83.68;;;26.10;;
70414;SDS011;57837;52.064;113.478;2022-10-22T14:53:46;73.95;;;24.35;;
70414;SDS011;57837;52.064;113.478;2022-10-22T14:56:49;76.32;;;26.27;;
70414;SDS011;57837;52.064;113.478;2022-10-22T14:59:53;69.35;;;25.10;;
70414;SDS011;57837;52.064;113.478;2022-10-22T15:02:56;59.00;;;23.83;;
70414;SDS011;57837;52.064;113.478;2022-10-22T15:06:05;59.80;;;21.25;;
70414;SDS011;57837;52.064;113.478;2022-10-22T15:09:10;70.40;;;23.55;;
70414;SDS011;57837;52.064;113.478;2022-10-22T15:12:13;134.70;;;48.10;;
70414;SDS011;57837;52.064;113.478;2022-10-22T15:15:17;130.68;;;45.25;;
70414;SDS011;57837;52.064;113.478;2022-10-22T15:18:24;106.05;;;39.05;;
70414;SDS011;57837;52.064;113.478;2022-10-22T15:21:29;108.73;;;38.93;;
70414;SDS011;57837;52.064;113.478;2022-10-22T15:24:32;121.13;;;39.22;;
70414;SDS011;57837;52.064;113.478;2022-10-22T15:27:35;130.93;;;44.38;;
70414;SDS011;57837;52.064;113.478;2022-10-22T15:30:39;96.63;;;37.10;;
70414;SDS011;57837;52.064;113.478;2022-10-22T15:33:43;105.20;;;38.50;;
70414;SDS011;57837;52.064;113.478;2022-10-22T15:36:47;95.40;;;33.22;;
70414;SDS011;57837;52.064;113.478;2022-10-22T15:39:51;116.45;;;45.08;;
70414;SDS011;57837;52.064;113.478;2022-10-22T15:42:55;111.13;;;37.60;;
70414;SDS011;57837;52.064;113.478;2022-10-22T15:49:17;131.60;;;40.88;;
70414;SDS011;57837;52.064;113.478;2022-10-22T15:52:21;109.57;;;37.00;;
70414;SDS011;57837;52.064;113.478;2022-10-22T15:55:25;165.18;;;52.47;;
70414;SDS011;57837;52.064;113.478;2022-10-22T15:58:29;229.70;;;77.67;;
70414;SDS011;57837;52.064;113.478;2022-10-22T16:01:33;202.85;;;67.97;;
70414;SDS011;57837;52.064;113.478;2022-10-22T16:04:38;180.45;;;61.13;;
70414;SDS011;57837;52.064;113.478;2022-10-22T16:07:41;173.73;;;56.80;;
70414;SDS011;57837;52.064;113.478;2022-10-22T16:10:46;149.07;;;54.53;;
70414;SDS011;57837;52.064;113.478;2022-10-22T16:13:53;153.68;;;54.50;;
70414;SDS011;57837;52.064;113.478;2022-10-22T16:16:58;146.90;;;50.17;;
70414;SDS011;57837;52.064;113.478;2022-10-22T16:20:03;138.02;;;45.92;;
70414;SDS011;57837;52.064;113.478;2022-10-22T16:23:07;120.93;;;39.83;;
70414;SDS011;57837;52.064;113.478;2022-10-22T16:26:11;107.28;;;36.15;;
70414;SDS011;57837;52.064;113.478;2022-10-22T16:29:16;118.43;;;42.42;;
70414;SDS011;57837;52.064;113.478;2022-10-22T16:32:20;97.28;;;34.22;;
70414;SDS011;57837;52.064;113.478;2022-10-22T16:35:25;107.13;;;38.40;;
70414;SDS011;57837;52.064;113.478;2022-10-22T16:38:28;191.02;;;64.47;;
70414;SDS011;57837;52.064;113.478;2022-10-22T16:41:33;177.73;;;63.90;;
70414;SDS011;57837;52.064;113.478;2022-10-22T16:44:37;195.00;;;65.00;;
70414;SDS011;57837;52.064;113.478;2022-10-22T16:47:41;153.27;;;50.97;;
70414;SDS011;57837;52.064;113.478;2022-10-22T16:50:44;134.57;;;49.88;;
70414;SDS011;57837;52.064;113.478;2022-10-22T16:53:52;188.75;;;64.60;;
70414;SDS011;57837;52.064;113.478;2022-10-22T16:56:57;155.93;;;53.00;;
70414;SDS011;57837;52.064;113.478;2022-10-22T17:00:01;253.37;;;88.30;;
70414;SDS011;57837;52.064;113.478;2022-10-22T17:03:08;225.65;;;79.03;;
70414;SDS011;57837;52.064;113.478;2022-10-22T17:06:14;231.00;;;76.35;;
70414;SDS011;57837;52.064;113.478;2022-10-22T17:09:18;189.75;;;60.33;;
70414;SDS011;57837;52.064;113.478;2022-10-22T17:12:22;315.57;;;108.07;;
70414;SDS011;57837;52.064;113.478;2022-10-22T17:15:26;381.67;;;133.82;;
70414;SDS011;57837;52.064;113.478;2022-10-22T17:18:30;315.38;;;110.20;;
70414;SDS011;57837;52.064;113.478;2022-10-22T17:21:34;365.05;;;121.85;;
70414;SDS011;57837;52.064;113.478;2022-10-22T17:24:38;320.90;;;108.15;;
70414;SDS011;57837;52.064;113.478;2022-10-22T17:27:45;303.48;;;107.47;;
70414;SDS011;57837;52.064;113.478;2022-10-22T17:30:49;308.17;;;107.55;;
70414;SDS011;57837;52.064;113.478;2022-10-22T17:33:54;303.47;;;101.70;;
70414;SDS011;57837;52.064;113.478;2022-10-22T17:36:58;281.92;;;100.78;;
70414;SDS011;57837;52.064;113.478;2022-10-22T17:40:03;267.25;;;91.60;;
70414;SDS011;57837;52.064;113.478;2022-10-22T17:43:07;284.08;;;94.40;;
70414;SDS011;57837;52.064;113.478;2022-10-22T17:46:18;263.90;;;93.73;;
70414;SDS011;57837;52.064;113.478;2022-10-22T17:49:24;292.63;;;100.18;;
70414;SDS011;57837;52.064;113.478;2022-10-22T17:52:27;260.58;;;88.82;;
70414;SDS011;57837;52.064;113.478;2022-10-22T17:55:32;284.37;;;97.27;;
70414;SDS011;57837;52.064;113.478;2022-10-22T17:58:36;267.73;;;89.13;;
70414;SDS011;57837;52.064;113.478;2022-10-22T18:01:40;268.70;;;88.30;;
70414;SDS011;57837;52.064;113.478;2022-10-22T18:04:50;261.80;;;84.93;;
70414;SDS011;57837;52.064;113.478;2022-10-22T18:07:55;227.23;;;80.18;;
70414;SDS011;57837;52.064;113.478;2022-10-22T18:10:58;228.35;;;75.53;;
70414;SDS011;57837;52.064;113.478;2022-10-22T18:14:03;205.65;;;71.03;;
70414;SDS011;57837;52.064;113.478;2022-10-22T18:17:06;236.30;;;82.97;;
70414;SDS011;57837;52.064;113.478;2022-10-22T18:20:11;224.75;;;80.57;;
70414;SDS011;57837;52.064;113.478;2022-10-22T18:23:15;289.52;;;104.03;;
70414;SDS011;57837;52.064;113.478;2022-10-22T18:26:19;310.98;;;111.75;;
70414;SDS011;57837;52.064;113.478;2022-10-22T18:29:28;348.92;;;123.57;;
70414;SDS011;57837;52.064;113.478;2022-10-22T18:32:32;329.38;;;115.78;;
70414;SDS011;57837;52.064;113.478;2022-10-22T18:35:36;315.65;;;112.13;;
70414;SDS011;57837;52.064;113.478;2022-10-22T18:38:40;297.67;;;108.60;;
70414;SDS011;57837;52.064;113.478;2022-10-22T18:41:43;330.38;;;113.30;;
70414;SDS011;57837;52.064;113.478;2022-10-22T18:44:50;304.15;;;105.97;;
70414;SDS011;57837;52.064;113.478;2022-10-22T18:47:54;328.02;;;112.53;;
70414;SDS011;57837;52.064;113.478;2022-10-22T18:51:02;341.80;;;119.37;;
70414;SDS011;57837;52.064;113.478;2022-10-22T18:54:08;306.02;;;106.45;;
70414;SDS011;57837;52.064;113.478;2022-10-22T18:57:25;241.45;;;84.47;;
70414;SDS011;57837;52.064;113.478;2022-10-22T19:00:28;286.90;;;100.97;;
70414;SDS011;57837;52.064;113.478;2022-10-22T19:03:32;269.43;;;94.27;;
70414;SDS011;57837;52.064;113.478;2022-10-22T19:06:37;277.48;;;95.15;;
70414;SDS011;57837;52.064;113.478;2022-10-22T19:09:46;265.73;;;90.15;;
70414;SDS011;57837;52.064;113.478;2022-10-22T19:12:50;245.80;;;83.18;;
70414;SDS011;57837;52.064;113.478;2022-10-22T19:16:00;213.77;;;77.50;;
70414;SDS011;57837;52.064;113.478;2022-10-22T19:19:04;246.45;;;81.40;;